Terminal Aerodrome Forecast
Issued by NWS

Home | Current Version | Previous Version | Text Only | Print | Product List | Glossary On
Versions: 1 2 3 4 5 6 7 8 9 10 11 12 13 14 15 16 17 18 19 20 21 22
391
FTUS46 KSEW 230857 AAA
TAFSEA
TAF AMD
KSEA 230857Z 2309/2412 18004KT P6SM SCT025 SCT045
     FM231200 18006KT P6SM VCSH SCT020 BKN030 OVC045
     FM231600 20006KT P6SM -RA SCT015 OVC025
     FM231900 21009KT 6SM -RA BR SCT012 BKN018 OVC025
     FM240000 21012G18KT P6SM -SHRA SCT018 BKN030 OVC045
     FM240900 18006KT P6SM VCSH SCT025 BKN040 OVC060=

USA.gov is the U.S. government's official web portal to all federal, state and local government web resources and services.